Time;durP1;ratioP1;P1;durP2;ratioP2;P2;SDS_P1;SDS_P2;PMS_P1;PMS_P2;Temp;Humidity;BMP_temperature;BMP_pressure;BME280_temperature;BME280_humidity;BME280_pressure;Samples;Min_cycle;Max_cycle;Signal;HPM_P1;HPM_P2
2022/11/05 00:17:11;;;;;;;1.67;1.57;;;;;;;9.99;100.00;99361.98;2889263;79;21015;-86
2022/11/05 00:25:32;;;;;;;2.58;1.75;;;;;;;9.84;100.00;99383.71;2849297;81;20971;-87
2022/11/05 00:29:33;;;;;;;3.12;2.08;;;;;;;9.82;100.00;99406.07;2828263;82;21106;-86
2022/11/05 00:33:36;;;;;;;3.98;3.25;;;;;;;9.86;100.00;99410.97;2820164;82;21543;-87
2022/11/05 00:37:38;;;;;;;2.30;2.17;;;;;;;9.92;100.00;99406.87;2885639;80;20983;-86
2022/11/05 00:41:40;;;;;;;2.80;1.82;;;;;;;9.94;100.00;99401.43;2847950;81;21402;-86
2022/11/05 00:45:41;;;;;;;4.58;2.42;;;;;;;9.76;100.00;99414.62;2857258;81;21031;-88
2022/11/05 00:49:43;;;;;;;2.77;2.20;;;;;;;9.72;100.00;99409.56;2858442;81;21011;-86
2022/11/05 00:53:44;;;;;;;3.27;2.15;;;;;;;9.72;100.00;99405.58;2834191;80;21535;-87
2022/11/05 00:57:46;;;;;;;2.75;2.55;;;;;;;9.75;100.00;99412.44;2820348;82;21039;-87
2022/11/05 01:01:47;;;;;;;2.98;2.42;;;;;;;9.76;100.00;99419.42;2904712;78;21019;-87
2022/11/05 01:05:52;;;;;;;1.67;1.50;;;;;;;9.72;100.00;99428.66;2867054;80;21023;-87
2022/11/05 01:09:53;;;;;;;3.00;2.70;;;;;;;9.75;100.00;99438.17;2883611;80;20979;-87
2022/11/05 01:13:55;;;;;;;2.02;1.90;;;;;;;9.79;100.00;99454.17;2883419;80;21157;-87
2022/11/05 01:17:56;;;;;;;2.83;2.12;;;;;;;9.79;100.00;99452.34;2906665;80;21916;-87
2022/11/05 01:21:58;;;;;;;2.08;1.50;;;;;;;9.83;100.00;99463.05;2884915;79;21047;-87
2022/11/05 01:25:59;;;;;;;2.35;1.62;;;;;;;9.81;100.00;99459.67;2890640;80;21011;-87
2022/11/05 01:30:00;;;;;;;2.90;2.62;;;;;;;9.85;100.00;99465.07;2876537;79;21027;-87
2022/11/05 01:34:02;;;;;;;1.50;1.40;;;;;;;9.77;100.00;99469.41;2870363;80;21027;-87
2022/11/05 01:38:03;;;;;;;3.08;2.33;;;;;;;9.86;100.00;99465.42;2891368;80;21007;-86
2022/11/05 01:42:16;;;;;;;2.33;2.12;;;;;;;9.94;100.00;99471.36;2866030;80;21006;-87
2022/11/05 01:46:22;;;;;;;2.90;1.55;;;;;;;9.90;100.00;99489.04;2885663;80;21557;-87
2022/11/05 01:50:38;;;;;;;2.92;2.37;;;;;;;9.96;100.00;99495.11;2873275;79;21010;-86
2022/11/05 01:54:40;;;;;;;2.30;2.10;;;;;;;9.92;100.00;99489.22;2907786;80;21602;-86
2022/11/05 01:59:13;;;;;;;3.20;2.08;;;;;;;9.93;100.00;99486.95;2901846;80;21457;-87
2022/11/05 02:03:16;;;;;;;2.47;1.52;;;;;;;9.91;100.00;99487.55;2890687;80;21023;-86
2022/11/05 02:07:18;;;;;;;1.47;1.37;;;;;;;9.90;100.00;99482.40;2789762;83;21613;-86
2022/11/05 02:11:20;;;;;;;1.45;1.35;;;;;;;9.78;100.00;99494.48;2867893;80;21037;-86
2022/11/05 02:15:29;;;;;;;1.32;1.20;;;;;;;9.82;100.00;99503.84;2829166;82;21028;-86
2022/11/05 02:19:47;;;;;;;1.57;1.47;;;;;;;9.85;100.00;99495.62;2843624;81;21043;-87
2022/11/05 02:23:54;;;;;;;0.70;0.68;;;;;;;9.93;100.00;99506.02;2889506;80;21574;-88
2022/11/05 02:28:16;;;;;;;1.10;0.93;;;;;;;9.85;100.00;99518.20;2857205;81;21531;-87
2022/11/05 02:32:47;;;;;;;1.40;1.22;;;;;;;9.87;100.00;99527.34;2866605;80;21072;-88
2022/11/05 02:37:18;;;;;;;1.42;1.10;;;;;;;9.94;100.00;99534.27;2841561;80;21015;-87
2022/11/05 02:41:43;;;;;;;1.42;1.22;;;;;;;9.92;100.00;99542.86;2898080;79;21069;-87
2022/11/05 02:46:26;;;;;;;3.27;1.40;;;;;;;9.95;100.00;99555.86;2804782;81;20983;-87
2022/11/05 02:50:35;;;;;;;1.20;1.00;;;;;;;9.97;100.00;99553.42;2732964;84;20991;-88
2022/11/05 02:55:00;;;;;;;1.07;0.88;;;;;;;9.90;100.00;99552.80;2728108;84;21062;-87
2022/11/05 02:59:01;;;;;;;1.77;1.52;;;;;;;9.90;100.00;99552.80;2694456;85;21049;-88
2022/11/05 03:03:07;;;;;;;3.60;1.50;;;;;;;9.88;100.00;99566.20;2695987;85;21586;-88
2022/11/05 03:07:35;;;;;;;2.42;1.90;;;;;;;9.94;100.00;99576.30;2696004;85;21095;-88
2022/11/05 03:11:59;;;;;;;3.95;2.25;;;;;;;9.98;100.00;99584.80;2696665;84;21070;-87
2022/11/05 03:16:22;;;;;;;0.82;0.80;;;;;;;9.95;100.00;99598.38;2718876;84;21226;-87
2022/11/05 03:20:46;;;;;;;1.27;0.95;;;;;;;9.96;100.00;99611.53;2624124;87;21733;-87
2022/11/05 03:24:56;;;;;;;2.58;1.35;;;;;;;10.00;100.00;99612.92;2650523;85;21643;-87
2022/11/05 03:29:15;;;;;;;1.77;1.15;;;;;;;9.99;100.00;99623.67;2701291;85;21170;-88
2022/11/05 03:33:21;;;;;;;2.95;1.32;;;;;;;10.00;100.00;99622.70;2878130;79;21546;-87
2022/11/05 03:37:23;;;;;;;;;;;;;;;9.96;100.00;99622.63;2889591;79;21538;-87
2022/11/05 03:41:25;;;;;;;1.77;1.15;;;;;;;10.00;100.00;99634.66;2847517;80;20096;-87
2022/11/05 03:45:37;;;;;;;2.55;1.50;;;;;;;10.02;100.00;99638.52;2797621;81;21621;-88
2022/11/05 03:50:03;;;;;;;1.85;1.75;;;;;;;10.06;100.00;99647.41;2867979;80;21008;-87
2022/11/05 03:54:05;;;;;;;1.95;1.80;;;;;;;10.08;100.00;99658.73;2897735;80;21008;-87
2022/11/05 03:58:08;;;;;;;1.37;1.07;;;;;;;10.15;100.00;99667.00;2847872;79;20999;-87
2022/11/05 04:02:12;;;;;;;2.42;1.40;;;;;;;10.11;100.00;99680.19;2886984;80;21899;-88
2022/11/05 04:13:22;;;;;;;2.35;1.32;;;;;;;10.12;100.00;99684.05;2798466;82;21028;-87
2022/11/05 04:14:48;;;;;;;2.33;1.50;;;;;;;10.10;100.00;99707.27;2884543;81;21039;-88
2022/11/05 04:18:49;;;;;;;2.15;1.95;;;;;;;10.21;100.00;99717.41;2830868;82;20992;-88
2022/11/05 04:27:19;;;;;;;1.32;0.98;;;;;;;10.12;100.00;99734.55;2866227;79;21429;-87
2022/11/05 04:31:20;;;;;;;2.62;1.98;;;;;;;10.21;100.00;99742.66;2865892;80;21016;-87
2022/11/05 04:35:22;;;;;;;2.02;1.15;;;;;;;10.25;100.00;99734.80;2892623;80;21047;-87
2022/11/05 04:39:23;;;;;;;1.15;1.05;;;;;;;10.22;100.00;99739.03;2786205;80;21016;-86
2022/11/05 04:43:24;;;;;;;2.17;1.55;;;;;;;10.06;100.00;99735.58;2908429;80;21011;-86
2022/11/05 04:47:26;;;;;;;0.88;0.82;;;;;;;10.09;100.00;99743.27;2876142;79;21546;-88
2022/11/05 04:51:27;;;;;;;1.98;1.32;;;;;;;10.01;100.00;99747.93;2908001;80;21051;-89
2022/11/05 04:55:30;;;;;;;2.08;1.42;;;;;;;10.04;100.00;99760.97;2873398;80;21019;-88
2022/11/05 04:59:31;;;;;;;1.67;1.57;;;;;;;10.05;100.00;99767.11;2851674;81;21566;-87
2022/11/05 05:03:32;;;;;;;1.70;1.50;;;;;;;10.06;100.00;99773.63;2842078;82;21017;-88
2022/11/05 05:07:34;;;;;;;1.67;0.80;;;;;;;10.12;100.00;99775.73;2863635;80;21059;-87
2022/11/05 05:11:35;;;;;;;2.47;1.42;;;;;;;10.07;100.00;99784.61;2831308;79;21003;-87
2022/11/05 05:15:37;;;;;;;1.30;1.20;;;;;;;10.02;100.00;99788.14;2875671;80;21031;-87
2022/11/05 05:23:41;;;;;;;1.47;1.10;;;;;;;10.01;100.00;99797.09;2842879;79;21007;-87
2022/11/05 05:27:43;;;;;;;2.15;1.70;;;;;;;10.04;100.00;99798.17;2903955;80;21625;-88
2022/11/05 05:31:44;;;;;;;2.98;1.75;;;;;;;10.12;100.00;99808.11;2880163;80;20986;-88
2022/11/05 05:35:46;;;;;;;2.47;1.50;;;;;;;10.17;100.00;99815.20;2899990;80;21020;-86
2022/11/05 05:39:47;;;;;;;2.08;1.50;;;;;;;10.13;100.00;99813.30;2880896;80;21024;-87
2022/11/05 05:43:49;;;;;;;1.72;1.45;;;;;;;10.08;100.00;99822.17;2855966;81;21073;-89
2022/11/05 05:47:50;;;;;;;4.15;2.35;;;;;;;9.94;100.00;99818.53;2858327;80;21512;-88
2022/11/05 05:51:51;;;;;;;1.55;1.27;;;;;;;10.02;100.00;99808.58;2880305;80;21019;-88
2022/11/05 05:55:54;;;;;;;2.77;2.37;;;;;;;10.00;100.00;99821.98;2874195;81;21044;-88
2022/11/05 05:59:56;;;;;;;5.22;2.35;;;;;;;9.95;100.00;99834.36;2889475;80;20999;-87
2022/11/05 06:03:57;;;;;;;2.12;1.92;;;;;;;10.00;100.00;99849.88;2884296;79;21008;-88
2022/11/05 06:07:58;;;;;;;3.52;2.58;;;;;;;10.00;100.00;99861.84;2840587;81;21041;-88
2022/11/05 06:12:00;;;;;;;4.20;2.92;;;;;;;9.94;100.00;99859.72;2861611;80;21599;-88
2022/11/05 06:16:04;;;;;;;4.05;3.45;;;;;;;9.93;100.00;99854.05;2865522;81;21035;-88
2022/11/05 06:20:07;;;;;;;4.42;3.72;;;;;;;9.79;100.00;99846.77;2795850;82;21016;-87
2022/11/05 06:24:09;;;;;;;4.58;3.75;;;;;;;9.91;100.00;99871.94;2884522;80;21573;-85
2022/11/05 06:28:11;;;;;;;4.30;3.90;;;;;;;9.93;100.00;99885.46;2835404;81;21072;-91
2022/11/05 06:32:13;;;;;;;4.87;2.87;;;;;;;10.05;100.00;99896.84;2889674;80;21520;-90
2022/11/05 06:36:16;;;;;;;4.47;3.95;;;;;;;10.02;100.00;99894.43;2792412;81;21075;-90
2022/11/05 06:40:17;;;;;;;5.20;4.70;;;;;;;10.06;100.00;99901.66;2890580;79;21067;-87
2022/11/05 06:44:20;;;;;;;5.83;5.20;;;;;;;10.04;100.00;99903.14;2835366;82;21013;-91
2022/11/05 06:48:21;;;;;;;5.87;5.33;;;;;;;10.01;100.00;99907.36;2834246;80;21015;-91
2022/11/05 06:52:23;;;;;;;6.10;4.20;;;;;;;10.05;100.00;99922.09;2852982;80;21692;-89
2022/11/05 06:56:24;;;;;;;7.08;5.42;;;;;;;10.10;100.00;99927.84;2853331;80;21019;-90
2022/11/05 07:00:25;;;;;;;6.75;5.65;;;;;;;10.10;100.00;99932.30;2860362;80;21640;-90
2022/11/05 07:04:27;;;;;;;6.67;5.03;;;;;;;10.06;100.00;99941.05;2882796;80;21530;-92
2022/11/05 07:08:34;;;;;;;6.72;4.87;;;;;;;10.05;100.00;99947.81;2837440;79;21020;-89
2022/11/05 07:12:35;;;;;;;8.15;6.67;;;;;;;10.09;100.00;99947.42;2879265;79;21142;-91
2022/11/05 07:16:36;;;;;;;6.78;5.85;;;;;;;10.21;100.00;99952.65;2846648;81;21141;-91
2022/11/05 07:20:38;;;;;;;7.78;6.15;;;;;;;10.25;100.00;99956.75;2848108;80;21081;-89
2022/11/05 07:24:39;;;;;;;6.33;5.58;;;;;;;10.33;100.00;99956.92;2812833;80;21101;-91
2022/11/05 07:28:41;;;;;;;5.47;4.28;;;;;;;10.41;100.00;99965.09;2815126;81;21135;-92
2022/11/05 07:33:03;;;;;;;4.10;3.45;;;;;;;10.47;100.00;99980.19;2853446;81;21625;-93
2022/11/05 07:37:05;;;;;;;5.60;3.75;;;;;;;10.60;100.00;99982.11;2881395;79;21015;-89
2022/11/05 07:41:06;;;;;;;9.93;5.92;;;;;;;10.55;100.00;99987.00;2854255;80;21733;-90
2022/11/05 07:45:09;;;;;;;7.30;4.65;;;;;;;10.56;100.00;99997.99;2884192;79;20994;-88
2022/11/05 07:49:10;;;;;;;7.12;4.10;;;;;;;10.53;100.00;100011.09;2841573;80;21069;-91
2022/11/05 07:53:13;;;;;;;6.97;4.87;;;;;;;10.58;100.00;100017.31;2834178;81;21050;-88
2022/11/05 07:57:14;;;;;;;5.70;4.62;;;;;;;10.67;100.00;100015.20;2846829;81;21542;-88
2022/11/05 08:01:16;;;;;;;5.50;4.35;;;;;;;10.73;100.00;100016.97;2850263;81;21019;-91
2022/11/05 08:05:17;;;;;;;6.35;3.58;;;;;;;10.80;100.00;100028.75;2803735;81;21047;-90
2022/11/05 08:09:18;;;;;;;7.05;3.92;;;;;;;10.88;100.00;100035.59;2798988;82;20999;-85
2022/11/05 08:13:20;;;;;;;5.95;4.47;;;;;;;10.95;100.00;100046.05;2873865;80;21070;-89
2022/11/05 08:17:21;;;;;;;7.37;3.98;;;;;;;10.95;100.00;100050.04;2841615;80;21813;-88
2022/11/05 08:21:22;;;;;;;5.83;3.85;;;;;;;10.99;100.00;100050.63;2887689;78;21015;-88
2022/11/05 08:25:24;;;;;;;5.60;3.80;;;;;;;11.06;100.00;100056.25;2869904;81;21018;-89
2022/11/05 08:29:26;;;;;;;4.83;2.92;;;;;;;11.14;100.00;100059.07;2854244;80;21007;-85
2022/11/05 08:33:30;;;;;;;8.28;5.15;;;;;;;11.14;100.00;100059.07;2867650;80;21514;-92
2022/11/05 08:37:30;;;;;;;6.78;4.72;;;;;;;11.27;100.00;100064.15;2857393;80;21514;-88
2022/11/05 08:41:32;;;;;;;5.62;5.05;;;;;;;11.32;100.00;100064.61;2875294;80;21011;-89
2022/11/05 08:45:35;;;;;;;6.08;3.50;;;;;;;11.26;100.00;100079.77;2855745;80;21023;-88
2022/11/05 08:49:36;;;;;;;15.85;5.50;;;;;;;11.20;100.00;100089.17;2851823;80;21747;-89
2022/11/05 08:53:38;;;;;;;3.52;2.77;;;;;;;11.16;100.00;100101.04;2865688;80;20959;-87
2022/11/05 08:57:39;;;;;;;5.03;3.58;;;;;;;11.18;100.00;100104.41;2859105;79;21017;-90
2022/11/05 09:01:41;;;;;;;5.42;4.22;;;;;;;11.21;100.00;100113.95;2728649;82;21003;-93
2022/11/05 09:05:42;;;;;;;5.25;4.12;;;;;;;11.29;100.00;100120.30;2832615;78;21051;-91
2022/11/05 09:09:44;;;;;;;6.17;4.00;;;;;;;11.27;100.00;100115.59;2901387;78;20967;-93
2022/11/05 09:13:45;;;;;;;5.62;4.75;;;;;;;11.26;100.00;100133.88;2858268;81;21006;-92
2022/11/05 09:17:47;;;;;;;5.67;3.67;;;;;;;11.34;100.00;100125.23;2826180;81;21040;-95
2022/11/05 09:21:48;;;;;;;7.03;4.60;;;;;;;11.36;100.00;100143.72;2775877;82;21009;-92
2022/11/05 09:25:49;;;;;;;4.25;3.85;;;;;;;11.52;100.00;100144.56;2820499;83;21543;-92
2022/11/05 09:29:50;;;;;;;7.83;4.25;;;;;;;11.61;100.00;100141.06;2874821;78;21043;-92
2022/11/05 09:33:52;;;;;;;5.25;3.45;;;;;;;11.55;100.00;100149.11;2799939;81;21584;-91
2022/11/05 09:37:53;;;;;;;7.08;4.30;;;;;;;11.60;100.00;100147.88;2877901;80;21093;-93
2022/11/05 09:42:00;;;;;;;7.83;4.53;;;;;;;11.65;100.00;100160.30;2905791;79;21083;-90
2022/11/05 09:46:10;;;;;;;4.55;4.15;;;;;;;11.69;100.00;100159.04;2883606;80;21096;-91
2022/11/05 09:50:33;;;;;;;11.20;3.37;;;;;;;11.75;100.00;100165.15;2867276;80;20971;-94
2022/11/05 09:54:35;;;;;;;8.65;4.12;;;;;;;11.68;100.00;100170.68;2849885;80;21043;-92
2022/11/05 09:58:42;;;;;;;6.22;4.72;;;;;;;11.64;100.00;100163.94;2883083;80;21052;-93
2022/11/05 10:03:06;;;;;;;9.43;4.67;;;;;;;11.66;100.00;100164.14;2865774;80;20995;-94
2022/11/05 10:07:35;;;;;;;8.03;5.37;;;;;;;11.70;100.00;100168.72;2842572;80;21027;-94
2022/11/05 10:11:44;;;;;;;8.80;5.75;;;;;;;11.85;100.00;100176.69;2843096;81;21028;-93
2022/11/05 10:16:17;;;;;;;7.83;3.67;;;;;;;11.86;100.00;100182.38;2897640;80;21051;-93
2022/11/05 10:20:34;;;;;;;9.25;4.67;;;;;;;11.80;100.00;100182.92;2824460;81;20992;-95
2022/11/05 10:24:40;;;;;;;6.35;4.67;;;;;;;11.89;100.00;100189.27;2795111;83;21060;-94
2022/11/05 10:28:41;;;;;;;7.00;5.33;;;;;;;11.77;100.00;100189.01;2841768;81;20986;-94
2022/11/05 10:32:45;;;;;;;15.03;4.85;;;;;;;11.70;100.00;100188.70;2858176;81;21064;-94
2022/11/05 10:36:47;;;;;;;6.12;4.05;;;;;;;11.73;100.00;100183.09;2854335;82;21146;-94
2022/11/05 10:41:06;;;;;;;6.50;5.30;;;;;;;11.75;100.00;100190.97;2853635;81;21090;-93
2022/11/05 10:45:30;;;;;;;5.28;3.17;;;;;;;11.82;100.00;100191.62;2831468;82;21807;-93
2022/11/05 10:50:00;;;;;;;6.25;3.33;;;;;;;11.86;100.00;100195.70;2833690;80;21055;-90
2022/11/05 10:54:07;;;;;;;6.58;4.33;;;;;;;12.08;100.00;100199.14;2683846;86;21003;-95
2022/11/05 10:58:14;;;;;;;4.80;3.27;;;;;;;12.30;100.00;100198.53;2701443;86;21674;-93
2022/11/05 11:02:25;;;;;;;7.40;3.52;;;;;;;12.27;100.00;100200.14;2663076;86;21421;-94
2022/11/05 11:06:37;;;;;;;6.25;2.90;;;;;;;12.30;100.00;100208.38;2762178;84;21034;-94
2022/11/05 11:10:43;;;;;;;6.75;5.03;;;;;;;12.23;100.00;100214.23;2720638;84;21693;-95
2022/11/05 11:15:05;;;;;;;7.03;2.77;;;;;;;12.30;100.00;100213.20;2641473;87;21586;-95
2022/11/05 11:19:31;;;;;;;2.67;2.45;;;;;;;11.96;100.00;100221.04;2709430;84;21153;-95
2022/11/05 11:23:37;;;;;;;;;;;;;;;11.86;100.00;100217.02;2669939;86;21035;-92
2022/11/05 11:27:39;;;;;;;8.38;3.80;;;;;;;12.05;100.00;100226.08;2651709;86;20420;-93
2022/11/05 11:31:41;;;;;;;8.23;3.60;;;;;;;12.02;100.00;100218.36;2722983;84;21077;-89
2022/11/05 11:35:45;;;;;;;23.52;9.43;;;;;;;12.09;99.32;100220.81;2719793;85;21376;-90
2022/11/05 11:39:54;;;;;;;14.73;7.40;;;;;;;12.22;97.14;100232.55;2674746;84;21050;-92
2022/11/05 11:44:01;;;;;;;7.50;3.17;;;;;;;12.25;94.87;100234.94;2665470;85;21072;-93
2022/11/05 11:48:11;;;;;;;6.85;4.97;;;;;;;12.38;97.31;100242.70;2700562;83;21044;-89
2022/11/05 11:52:18;;;;;;;14.90;4.37;;;;;;;12.46;96.29;100243.83;2759194;84;21623;-95
2022/11/05 11:56:21;;;;;;;7.10;4.35;;;;;;;12.56;93.22;100243.32;2748821;84;21106;-91
2022/11/05 12:00:25;;;;;;;3.75;3.15;;;;;;;12.69;96.53;100247.90;2810700;80;21039;-93
2022/11/05 12:05:13;;;;;;;9.95;4.10;;;;;;;12.77;96.60;100239.67;2861652;81;21007;-95
2022/11/05 12:09:43;;;;;;;19.25;3.37;;;;;;;12.86;93.86;100243.66;2910443;79;20954;-95
2022/11/05 12:13:59;;;;;;;10.95;4.22;;;;;;;12.76;92.12;100244.66;2882538;79;21051;-92
2022/11/05 12:18:08;;;;;;;17.32;4.35;;;;;;;12.92;94.04;100253.45;2895582;79;21035;-93
2022/11/05 12:22:18;;;;;;;5.87;3.65;;;;;;;12.99;92.12;100254.08;2879144;80;21539;-95
2022/11/05 12:26:38;;;;;;;8.03;3.58;;;;;;;12.99;93.61;100258.08;2891046;78;21505;-94
2022/11/05 12:31:25;;;;;;;6.17;2.75;;;;;;;12.91;90.86;100257.93;2835500;82;21037;-93
2022/11/05 12:36:01;;;;;;;22.05;11.30;;;;;;;12.66;89.94;100268.67;2787177;82;21035;-94
2022/11/05 12:40:30;;;;;;;27.82;15.05;;;;;;;12.64;91.96;100262.16;2840952;79;21039;-93
2022/11/05 12:45:00;;;;;;;8.45;3.90;;;;;;;12.39;92.13;100264.39;2842155;80;20999;-94
2022/11/05 12:49:29;;;;;;;18.90;7.33;;;;;;;12.43;92.36;100271.13;2833049;81;21062;-94
2022/11/05 12:54:01;;;;;;;12.75;4.40;;;;;;;12.45;92.61;100274.98;2815087;81;21060;-95
2022/11/05 12:58:08;;;;;;;2.33;1.80;;;;;;;12.57;92.74;100269.02;2810809;80;21115;-91
2022/11/05 13:02:41;;;;;;;5.72;3.15;;;;;;;12.61;90.40;100267.78;2837233;80;21624;-92
2022/11/05 13:06:46;;;;;;;10.75;4.00;;;;;;;12.69;88.83;100282.59;2720104;83;21012;-94
2022/11/05 13:11:14;;;;;;;12.47;4.90;;;;;;;12.62;88.09;100280.14;2806105;82;20991;-93
2022/11/05 13:15:25;;;;;;;7.60;3.87;;;;;;;12.66;88.07;100277.54;2853681;79;21042;-94
2022/11/05 13:19:38;;;;;;;5.15;3.70;;;;;;;12.75;89.49;100275.00;2854324;82;21793;-95
2022/11/05 13:23:51;;;;;;;7.35;4.35;;;;;;;12.76;87.66;100284.22;2831708;81;20983;-87
2022/11/05 13:28:35;;;;;;;11.88;4.92;;;;;;;12.84;86.86;100281.67;2812851;82;21024;-92
2022/11/05 13:32:41;;;;;;;8.80;3.83;;;;;;;12.69;88.22;100278.59;2838196;81;21949;-94
2022/11/05 13:41:39;;;;;;;13.70;7.40;;;;;;;12.78;90.70;100291.59;2832858;79;21021;-94
2022/11/05 13:46:10;;;;;;;6.67;3.80;;;;;;;12.75;88.96;100303.02;2822782;81;21067;-91
2022/11/05 13:50:32;;;;;;;6.78;4.78;;;;;;;12.79;89.11;100312.47;2890347;80;21629;-94
2022/11/05 13:54:41;;;;;;;6.22;2.75;;;;;;;12.85;88.35;100313.23;2914236;79;21012;-92
2022/11/05 13:58:51;;;;;;;7.25;4.65;;;;;;;12.81;88.27;100315.84;2915011;79;21537;-93
2022/11/05 14:03:05;;;;;;;14.98;6.47;;;;;;;12.73;87.87;100316.53;2922497;79;21035;-94
2022/11/05 14:07:12;;;;;;;13.78;9.55;;;;;;;12.70;88.42;100326.98;2880825;80;20983;-92
2022/11/05 14:11:21;;;;;;;21.10;9.13;;;;;;;12.71;88.95;100326.50;2875402;78;21071;-95
2022/11/05 14:15:27;;;;;;;12.78;7.75;;;;;;;12.81;88.26;100325.17;2878748;79;21772;-94
2022/11/05 14:19:36;;;;;;;8.38;3.27;;;;;;;12.80;87.54;100329.66;2876571;79;20992;-93
2022/11/05 14:23:44;;;;;;;7.20;3.75;;;;;;;12.75;85.71;100336.39;2879873;80;21026;-95
2022/11/05 14:27:49;;;;;;;6.78;3.70;;;;;;;12.77;87.10;100340.62;2877660;79;20999;-93
2022/11/05 14:31:55;;;;;;;6.62;4.00;;;;;;;12.69;85.87;100343.98;2922875;78;21081;-94
2022/11/05 14:36:28;;;;;;;5.83;3.50;;;;;;;12.59;86.92;100347.13;2823271;81;21071;-94
2022/11/05 14:40:41;;;;;;;16.93;3.98;;;;;;;12.57;87.51;100355.73;2894489;79;21526;-93
2022/11/05 14:45:10;;;;;;;13.55;5.70;;;;;;;12.47;88.49;100362.89;2839852;79;21042;-95
2022/11/05 14:49:35;;;;;;;8.13;5.78;;;;;;;12.38;88.29;100367.22;2914348;80;21055;-95
2022/11/05 14:53:39;;;;;;;8.18;4.42;;;;;;;12.28;89.31;100365.85;2825480;82;21175;-93
2022/11/05 14:57:47;;;;;;;14.50;5.25;;;;;;;12.14;91.74;100363.89;2789329;81;21031;-92
2022/11/05 15:01:54;;;;;;;8.60;4.85;;;;;;;11.92;93.15;100370.23;2850280;80;21028;-93
2022/11/05 15:06:34;;;;;;;13.00;5.28;;;;;;;11.47;94.85;100372.70;2881360;80;21490;-93
2022/11/05 15:10:37;;;;;;;5.17;4.45;;;;;;;11.23;92.03;100372.46;2905298;79;21019;-92
2022/11/05 15:15:04;;;;;;;9.80;4.33;;;;;;;11.16;89.04;100377.92;2870572;78;21003;-90
2022/11/05 15:19:29;;;;;;;10.65;4.60;;;;;;;11.20;89.50;100375.86;2824521;81;21031;-92
2022/11/05 15:23:38;;;;;;;6.97;3.47;;;;;;;10.85;94.84;100385.78;2831758;81;21019;-93
2022/11/05 15:27:51;;;;;;;8.03;3.65;;;;;;;10.47;96.88;100393.21;2843562;80;21007;-92
2022/11/05 15:31:53;;;;;;;8.98;5.50;;;;;;;10.40;97.35;100401.30;2858520;80;20992;-91
2022/11/05 15:35:55;;;;;;;8.25;5.42;;;;;;;10.34;97.71;100399.97;2831600;81;21949;-95
2022/11/05 15:39:56;;;;;;;8.68;5.25;;;;;;;10.35;98.09;100410.13;2841205;81;21028;-94
2022/11/05 15:43:58;;;;;;;11.30;6.03;;;;;;;10.08;98.97;100413.50;2796464;81;21032;-92
2022/11/05 15:48:00;;;;;;;8.60;5.78;;;;;;;10.09;98.63;100413.86;2891417;79;21023;-92
2022/11/05 15:52:01;;;;;;;7.33;5.17;;;;;;;10.11;97.25;100425.22;2917226;79;21015;-93
2022/11/05 15:56:10;;;;;;;9.55;5.95;;;;;;;10.14;96.07;100424.98;2881448;80;20947;-93
2022/11/05 16:00:28;;;;;;;5.83;3.50;;;;;;;10.19;96.13;100419.31;2897133;80;20992;-91
2022/11/05 16:04:33;;;;;;;5.90;4.03;;;;;;;10.18;94.84;100428.72;2879546;80;21055;-93
2022/11/05 16:08:35;;;;;;;14.23;5.72;;;;;;;10.14;94.22;100436.94;2890917;79;21488;-93
2022/11/05 16:12:38;;;;;;;13.32;4.58;;;;;;;10.12;93.40;100440.67;2873310;79;21023;-95
2022/11/05 16:16:39;;;;;;;14.10;5.20;;;;;;;10.13;93.12;100439.23;2871157;79;21102;-88
2022/11/05 16:24:58;;;;;;;;;;;;;;;10.07;92.53;100447.69;3023508;77;20987;-59
2022/11/05 16:29:10;;;;;;;12.58;9.08;;;;;;;9.96;95.80;100448.98;3024676;77;20124;-59
2022/11/05 16:33:13;;;;;;;11.93;6.80;;;;;;;9.81;95.73;100459.81;2983976;77;20990;-59
2022/11/05 16:37:17;;;;;;;13.22;7.90;;;;;;;9.83;95.95;100461.05;2935805;79;21102;-61
2022/11/05 16:41:23;;;;;;;13.22;7.95;;;;;;;9.85;95.14;100465.75;2954463;78;21102;-61
2022/11/05 16:45:25;;;;;;;11.80;6.53;;;;;;;9.89;94.53;100474.34;2972666;78;20913;-59
2022/11/05 16:49:26;;;;;;;8.58;5.97;;;;;;;9.90;94.22;100476.04;3011041;77;20973;-60
2022/11/05 16:53:27;;;;;;;12.55;8.03;;;;;;;9.88;94.13;100479.30;3011046;77;20968;-62
2022/11/05 16:57:36;;;;;;;16.60;8.35;;;;;;;9.77;95.32;100483.59;2986532;77;20963;-57
2022/11/05 17:01:40;;;;;;;16.75;10.70;;;;;;;9.28;100.00;100482.79;2922932;78;20988;-60
2022/11/05 17:05:42;;;;;;;13.98;12.00;;;;;;;8.94;100.00;100492.73;3022009;76;21002;-61
2022/11/05 17:09:43;;;;;;;21.77;10.68;;;;;;;8.99;100.00;100500.36;3028374;77;21527;-61
2022/11/05 17:13:46;;;;;;;22.27;11.48;;;;;;;9.06;100.00;100493.64;3036752;77;28164;-63
2022/11/05 17:17:48;;;;;;;20.40;12.43;;;;;;;9.10;100.00;100504.89;2999189;77;21030;-60
2022/11/05 17:21:50;;;;;;;20.77;13.32;;;;;;;9.23;100.00;100509.66;3024936;77;20977;-59
2022/11/05 17:25:56;;;;;;;16.52;9.95;;;;;;;9.34;100.00;100514.69;3031094;77;21012;-59
2022/11/05 17:29:57;;;;;;;;;;;;;;;9.39;100.00;100515.19;3031423;77;21051;-58
2022/11/05 17:33:59;;;;;;;24.77;13.60;;;;;;;9.46;99.60;100519.11;3005145;77;20069;-59
2022/11/05 17:38:01;;;;;;;19.80;9.93;;;;;;;9.51;98.52;100526.70;3046721;77;21003;-59
2022/11/05 17:42:02;;;;;;;28.47;9.88;;;;;;;9.48;97.30;100527.80;3039129;76;21045;-59
2022/11/05 17:46:07;;;;;;;14.05;8.88;;;;;;;9.47;96.30;100531.42;3001886;77;20960;-59
2022/11/05 17:50:13;;;;;;;16.27;8.10;;;;;;;9.44;95.66;100531.65;2980787;76;21041;-60
2022/11/05 17:54:38;;;;;;;13.17;9.10;;;;;;;9.41;95.02;100538.48;3007595;77;20980;-59
2022/11/05 17:58:40;;;;;;;16.85;8.68;;;;;;;9.40;94.83;100539.45;2985124;78;21062;-62
2022/11/05 18:02:41;;;;;;;11.48;7.50;;;;;;;9.33;93.58;100543.52;2971707;78;22349;-59
2022/11/05 18:06:48;;;;;;;15.23;9.73;;;;;;;9.23;93.33;100549.47;3004851;77;21102;-59
2022/11/05 18:10:52;;;;;;;13.08;9.28;;;;;;;9.14;92.99;100556.79;3008870;77;21034;-59
2022/11/05 18:14:53;;;;;;;12.50;8.63;;;;;;;9.07;93.11;100554.22;2984822;77;20987;-59
2022/11/05 18:18:57;;;;;;;16.82;10.05;;;;;;;8.98;93.00;100560.53;3053638;76;20958;-59
2022/11/05 18:23:05;;;;;;;17.12;10.82;;;;;;;8.90;94.12;100560.23;3015276;76;20955;-59
2022/11/05 18:27:07;;;;;;;27.32;12.13;;;;;;;8.85;95.50;100563.20;3025923;77;21030;-60
2022/11/05 18:31:19;;;;;;;18.30;13.08;;;;;;;8.86;97.20;100565.39;3036400;77;21005;-61
2022/11/05 18:35:20;;;;;;;18.05;12.73;;;;;;;8.84;98.24;100565.95;3007160;77;21043;-62
2022/11/05 18:39:21;;;;;;;17.85;12.55;;;;;;;8.86;98.40;100569.37;3022512;77;21162;-61
2022/11/05 18:43:23;;;;;;;23.10;13.60;;;;;;;8.85;99.08;100567.67;3025167;77;21111;-61
2022/11/05 18:47:24;;;;;;;19.25;13.65;;;;;;;8.58;100.00;100564.64;3005850;77;20983;-61
2022/11/05 18:51:30;;;;;;;23.22;14.85;;;;;;;8.49;100.00;100575.38;3000482;77;21022;-63
2022/11/05 18:55:31;;;;;;;26.35;16.60;;;;;;;8.51;100.00;100580.62;2988731;76;21000;-59
2022/11/05 18:59:33;;;;;;;25.50;14.90;;;;;;;8.59;100.00;100588.88;2976752;76;20971;-61
2022/11/05 19:03:35;;;;;;;33.78;14.45;;;;;;;8.66;100.00;100592.83;2987195;76;21019;-63
2022/11/05 19:07:38;;;;;;;23.32;14.70;;;;;;;8.74;100.00;100598.91;3008115;77;21023;-61
2022/11/05 19:11:40;;;;;;;27.20;16.25;;;;;;;8.76;99.37;100596.16;2958433;77;21152;-60
2022/11/05 19:15:42;;;;;;;22.40;14.33;;;;;;;8.77;98.25;100603.16;2993675;77;21145;-60
2022/11/05 19:19:44;;;;;;;22.30;14.03;;;;;;;8.73;97.43;100608.30;2993088;77;21071;-63
2022/11/05 19:23:45;;;;;;;27.50;14.33;;;;;;;8.66;97.02;100611.39;2879633;81;21040;-61
2022/11/05 19:27:47;;;;;;;21.27;13.75;;;;;;;8.63;97.14;100626.16;2926739;79;21042;-61
2022/11/05 19:31:48;;;;;;;25.65;14.83;;;;;;;8.57;97.08;100631.43;2869802;80;21007;-61
2022/11/05 19:35:50;;;;;;;23.25;13.93;;;;;;;8.54;97.14;100623.66;2912052;80;21059;-60
2022/11/05 19:39:51;;;;;;;20.30;13.28;;;;;;;8.54;96.76;100628.13;2901993;80;20995;-60
2022/11/05 19:43:53;;;;;;;21.93;16.17;;;;;;;8.53;96.49;100634.39;2919278;80;21010;-59
2022/11/05 19:47:55;;;;;;;20.00;13.72;;;;;;;8.51;96.94;100633.16;3003403;77;21007;-60
2022/11/05 19:51:56;;;;;;;19.20;11.30;;;;;;;8.50;96.85;100641.23;3019699;77;20977;-60